Time;durP1;ratioP1;P1;durP2;ratioP2;P2;SDS_P1;SDS_P2;PMS_P1;PMS_P2;Temp;Humidity;BMP_temperature;BMP_pressure;BME280_temperature;BME280_humidity;BME280_pressure;Samples;Min_cycle;Max_cycle;Signal;HPM_P1;HPM_P2
2023/03/13 00:00:52;;;;;;;34.40;7.07;;;9.40;99.90;;;;;;5043549;28;20037;-64
2023/03/13 00:03:18;;;;;;;26.95;5.93;;;12.30;99.90;;;;;;5042386;28;20055;-64
2023/03/13 00:05:43;;;;;;;32.10;7.20;;;12.20;99.90;;;;;;5050735;28;20041;-64
2023/03/13 00:08:09;;;;;;;40.08;7.13;;;9.40;99.90;;;;;;5036497;28;20045;-64
2023/03/13 00:10:39;;;;;;;35.33;7.50;;;9.40;99.90;;;;;;5040008;28;20032;-64
2023/03/13 00:13:06;;;;;;;29.05;6.68;;;11.90;99.90;;;;;;5045235;28;20072;-64
2023/03/13 00:15:31;;;;;;;25.98;6.40;;;11.60;99.90;;;;;;5040069;28;20040;-64
2023/03/13 00:17:57;;;;;;;23.05;6.07;;;9.60;99.90;;;;;;5050935;28;20055;-64
2023/03/13 00:20:23;;;;;;;22.70;5.07;;;9.00;99.90;;;;;;5050872;28;20045;-64
2023/03/13 00:22:48;;;;;;;39.60;6.90;;;9.20;99.90;;;;;;5049989;28;20400;-65
2023/03/13 00:25:14;;;;;;;24.27;5.28;;;9.50;99.90;;;;;;5050834;28;20064;-64
2023/03/13 00:27:40;;;;;;;52.38;10.52;;;12.00;99.90;;;;;;5050008;28;20486;-64
2023/03/13 00:30:06;;;;;;;29.83;7.50;;;12.40;99.90;;;;;;5035426;28;20086;-64
2023/03/13 00:32:32;;;;;;;29.40;6.53;;;12.20;99.90;;;;;;5046601;28;20030;-64
2023/03/13 00:34:57;;;;;;;41.55;8.18;;;12.00;99.90;;;;;;5050510;28;20141;-64
2023/03/13 00:37:23;;;;;;;31.45;7.57;;;9.00;99.90;;;;;;5050817;28;20044;-64
2023/03/13 00:39:48;;;;;;;25.80;6.75;;;9.60;99.90;;;;;;5053731;28;20159;-64
2023/03/13 00:42:14;;;;;;;30.52;7.05;;;12.30;99.90;;;;;;5050014;28;20166;-64
2023/03/13 00:44:39;;;;;;;30.63;6.97;;;9.20;99.90;;;;;;5040630;28;20026;-64
2023/03/13 00:47:06;;;;;;;36.67;7.97;;;12.50;99.90;;;;;;5048455;28;20560;-64
2023/03/13 00:49:32;;;;;;;44.53;8.80;;;11.10;99.90;;;;;;5053670;28;20426;-64
2023/03/13 00:51:57;;;;;;;32.65;7.50;;;10.70;99.90;;;;;;5053668;28;20032;-64
2023/03/13 00:54:23;;;;;;;35.63;8.18;;;12.00;99.90;;;;;;5052059;28;20433;-64
2023/03/13 00:56:49;;;;;;;31.13;7.43;;;9.00;99.90;;;;;;5054368;28;20398;-64
2023/03/13 00:59:14;;;;;;;38.03;7.82;;;12.60;99.90;;;;;;5039099;28;20037;-64
2023/03/13 01:01:40;;;;;;;34.28;8.75;;;11.80;99.90;;;;;;5050945;28;20445;-64
2023/03/13 01:04:08;;;;;;;30.92;6.68;;;12.30;99.90;;;;;;5039512;28;20049;-64
2023/03/13 01:06:37;;;;;;;35.08;8.00;;;9.30;99.90;;;;;;5048178;28;20040;-64
2023/03/13 01:09:04;;;;;;;42.22;9.25;;;9.10;99.90;;;;;;5054164;28;20502;-63
2023/03/13 01:11:33;;;;;;;31.80;7.15;;;12.50;99.90;;;;;;5053462;28;20055;-64
2023/03/13 01:14:01;;;;;;;38.80;10.23;;;12.60;99.90;;;;;;5042073;28;20044;-63
2023/03/13 01:16:29;;;;;;;36.70;8.73;;;12.00;99.90;;;;;;5034491;28;20045;-64
2023/03/13 01:18:58;;;;;;;32.50;7.43;;;12.50;99.90;;;;;;5048021;28;20056;-64
2023/03/13 01:21:24;;;;;;;28.45;6.95;;;12.20;99.90;;;;;;5054099;28;20588;-64
2023/03/13 01:23:51;;;;;;;30.23;7.97;;;12.40;99.90;;;;;;5043667;28;20050;-64
2023/03/13 01:26:18;;;;;;;28.65;7.57;;;10.50;99.90;;;;;;5046664;28;20128;-64
2023/03/13 01:28:44;;;;;;;30.15;7.68;;;11.20;99.90;;;;;;5045635;28;20091;-64
2023/03/13 01:31:13;;;;;;;30.58;7.65;;;11.20;99.90;;;;;;5046871;28;20067;-64
2023/03/13 01:33:39;;;;;;;27.13;6.68;;;12.80;99.90;;;;;;5045986;28;20048;-64
2023/03/13 01:36:06;;;;;;;29.42;8.50;;;12.90;99.90;;;;;;5034566;28;20038;-65
2023/03/13 01:38:31;;;;;;;23.52;6.93;;;12.80;99.90;;;;;;5042529;28;20453;-65
2023/03/13 01:40:57;;;;;;;22.70;6.78;;;9.30;99.90;;;;;;5052733;28;20357;-65
2023/03/13 01:43:24;;;;;;;25.25;7.35;;;9.30;99.90;;;;;;5033420;28;20581;-64
2023/03/13 01:45:55;;;;;;;24.33;6.70;;;14.00;99.90;;;;;;5033945;28;20041;-64
2023/03/13 01:48:41;;;;;;;27.67;7.90;;;9.30;99.90;;;;;;5032564;28;20075;-64
2023/03/13 01:51:12;;;;;;;16.73;6.22;;;12.80;99.90;;;;;;5045955;28;20052;-64
2023/03/13 01:53:41;;;;;;;19.35;7.38;;;9.80;99.90;;;;;;5045599;28;20395;-65
2023/03/13 01:56:12;;;;;;;18.55;6.63;;;9.30;99.90;;;;;;5033848;28;20042;-64
2023/03/13 01:58:38;;;;;;;18.50;5.97;;;9.00;99.90;;;;;;5033652;28;20554;-64
2023/03/13 02:01:04;;;;;;;20.60;6.50;;;9.20;99.90;;;;;;5032244;28;20120;-64
2023/03/13 02:03:30;;;;;;;17.90;6.57;;;9.20;99.90;;;;;;5039043;28;20049;-65
2023/03/13 02:05:59;;;;;;;23.52;6.25;;;9.90;99.90;;;;;;5053566;28;20040;-65
2023/03/13 02:08:31;;;;;;;14.55;5.57;;;12.80;99.90;;;;;;5053292;28;20048;-65
2023/03/13 02:11:27;;;;;;;19.02;7.45;;;9.60;99.90;;;;;;5051410;28;20060;-65
2023/03/13 02:13:55;;;;;;;19.53;6.50;;;9.20;99.90;;;;;;5042393;28;20114;-65
2023/03/13 02:16:21;;;;;;;19.10;6.07;;;9.20;99.90;;;;;;5044460;28;20059;-65
2023/03/13 02:18:47;;;;;;;16.63;6.80;;;9.90;99.90;;;;;;5053146;28;20041;-65
2023/03/13 02:21:21;;;;;;;13.15;6.07;;;9.40;99.90;;;;;;5052943;28;20045;-65
2023/03/13 02:24:01;;;;;;;12.68;4.80;;;9.70;99.90;;;;;;5044724;28;20037;-66
2023/03/13 02:26:27;;;;;;;10.50;5.38;;;12.50;99.90;;;;;;5043514;28;20044;-65
2023/03/13 02:28:53;;;;;;;11.18;4.65;;;10.10;99.90;;;;;;5052761;28;20037;-64
2023/03/13 02:31:18;;;;;;;12.70;6.43;;;13.40;99.90;;;;;;5041625;28;20462;-65
2023/03/13 02:33:44;;;;;;;12.05;6.10;;;13.20;99.90;;;;;;5032907;28;20515;-65
2023/03/13 02:36:12;;;;;;;10.00;5.35;;;13.70;99.90;;;;;;5032817;28;20127;-65
2023/03/13 02:38:55;;;;;;;9.32;5.18;;;12.60;99.90;;;;;;5031583;28;20077;-65
2023/03/13 02:41:23;;;;;;;14.20;6.10;;;13.40;99.90;;;;;;5044596;28;20048;-65
2023/03/13 02:43:48;;;;;;;12.05;6.20;;;13.70;99.90;;;;;;5040698;28;20490;-64
2023/03/13 02:46:17;;;;;;;14.70;5.50;;;10.00;99.90;;;;;;5032612;28;20037;-65
2023/03/13 02:48:46;;;;;;;12.10;6.88;;;9.90;99.90;;;;;;5047894;28;20380;-64
2023/03/13 02:51:28;;;;;;;10.40;6.10;;;10.10;99.90;;;;;;5032174;28;20045;-65
2023/03/13 02:53:59;;;;;;;8.73;5.80;;;13.80;99.90;;;;;;5032423;28;20057;-65
2023/03/13 02:56:26;;;;;;;9.93;5.45;;;10.40;99.90;;;;;;5046892;28;20045;-65
2023/03/13 02:58:52;;;;;;;12.43;5.40;;;13.10;99.90;;;;;;5042319;28;20034;-65
2023/03/13 03:01:18;;;;;;;10.25;5.25;;;13.50;99.90;;;;;;5035489;28;20039;-65
2023/03/13 03:03:43;;;;;;;6.53;5.30;;;12.40;99.90;;;;;;5042892;28;20033;-66
2023/03/13 03:06:09;;;;;;;7.65;5.25;;;12.10;99.90;;;;;;5032029;28;20040;-66
2023/03/13 03:08:34;;;;;;;7.60;5.35;;;10.00;99.90;;;;;;5032484;28;20034;-65
2023/03/13 03:11:00;;;;;;;5.60;4.60;;;13.90;99.90;;;;;;5049085;28;20037;-65
2023/03/13 03:13:26;;;;;;;8.02;5.72;;;11.00;99.90;;;;;;5050073;28;20040;-66
2023/03/13 03:15:52;;;;;;;6.45;5.32;;;11.10;99.90;;;;;;5040024;28;20041;-66
2023/03/13 03:18:18;;;;;;;8.90;7.38;;;10.40;99.90;;;;;;5031925;28;20356;-66
2023/03/13 03:20:43;;;;;;;5.50;4.88;;;9.90;99.90;;;;;;5032090;28;20488;-66
2023/03/13 03:23:09;;;;;;;7.72;5.43;;;9.70;99.90;;;;;;5042096;28;20819;-67
2023/03/13 03:25:35;;;;;;;6.82;5.88;;;10.00;99.90;;;;;;5031839;28;20124;-66
2023/03/13 03:28:00;;;;;;;6.47;5.50;;;10.00;99.90;;;;;;5031948;28;20487;-67
2023/03/13 03:30:26;;;;;;;8.57;6.72;;;13.90;99.90;;;;;;5030505;28;20041;-67
2023/03/13 03:32:51;;;;;;;9.60;7.32;;;13.50;99.90;;;;;;5030640;28;20064;-66
2023/03/13 03:35:17;;;;;;;8.02;6.53;;;13.90;99.90;;;;;;5037355;28;20037;-66
2023/03/13 03:37:42;;;;;;;9.23;7.10;;;10.80;99.90;;;;;;5031611;28;20048;-66
2023/03/13 03:40:09;;;;;;;9.98;7.07;;;10.00;99.90;;;;;;5031924;28;20037;-67
2023/03/13 03:42:35;;;;;;;14.57;7.03;;;13.50;99.90;;;;;;5059003;28;20049;-66
2023/03/13 03:45:01;;;;;;;11.70;7.63;;;11.00;99.90;;;;;;5038001;28;20517;-66
2023/03/13 03:47:26;;;;;;;13.77;6.90;;;10.10;99.90;;;;;;5037263;28;20032;-67
2023/03/13 03:49:52;;;;;;;18.13;8.52;;;14.00;99.90;;;;;;5035325;28;20072;-66
2023/03/13 03:52:17;;;;;;;16.42;7.97;;;11.50;99.90;;;;;;5040387;28;20491;-67
2023/03/13 03:54:43;;;;;;;20.10;8.43;;;14.50;99.90;;;;;;5045167;28;20603;-66
2023/03/13 03:57:08;;;;;;;22.77;7.95;;;14.70;99.90;;;;;;5051343;28;20065;-67
2023/03/13 03:59:34;;;;;;;20.73;7.85;;;10.60;99.90;;;;;;5045130;28;20426;-66
2023/03/13 04:02:00;;;;;;;20.05;7.45;;;10.50;99.90;;;;;;5029601;28;21543;-67
2023/03/13 04:04:26;;;;;;;12.98;6.78;;;10.50;99.90;;;;;;5029621;28;20045;-67
2023/03/13 04:06:51;;;;;;;23.77;7.35;;;14.50;99.90;;;;;;5031226;28;20041;-66
2023/03/13 04:09:17;;;;;;;20.58;6.97;;;14.30;99.90;;;;;;5032779;28;20033;-66
2023/03/13 04:11:42;;;;;;;27.75;6.88;;;14.70;99.90;;;;;;5040048;28;20092;-66
2023/03/13 04:14:08;;;;;;;31.98;8.07;;;14.50;99.90;;;;;;5029287;28;20053;-67
2023/03/13 04:16:34;;;;;;;34.13;8.43;;;13.30;99.90;;;;;;5029156;28;20037;-66
2023/03/13 04:19:00;;;;;;;34.42;9.05;;;11.50;99.90;;;;;;5029675;28;20132;-67
2023/03/13 04:21:26;;;;;;;31.92;8.18;;;11.00;99.90;;;;;;5029464;28;20149;-67
2023/03/13 04:23:52;;;;;;;26.10;6.57;;;11.40;99.90;;;;;;5030012;28;20052;-67
2023/03/13 04:26:18;;;;;;;29.80;7.53;;;13.00;99.90;;;;;;5029164;28;20124;-67
2023/03/13 04:28:43;;;;;;;30.63;7.55;;;14.00;99.90;;;;;;5032969;28;20479;-67
2023/03/13 04:31:09;;;;;;;28.35;6.90;;;11.30;99.90;;;;;;5049710;28;20379;-67
2023/03/13 04:33:35;;;;;;;27.65;7.55;;;11.60;99.90;;;;;;5050662;28;20049;-67
2023/03/13 04:36:01;;;;;;;31.33;7.40;;;14.10;99.90;;;;;;5045449;28;20111;-67
2023/03/13 04:38:27;;;;;;;33.25;6.50;;;11.20;99.90;;;;;;5049809;28;20451;-67
2023/03/13 04:40:52;;;;;;;25.58;7.40;;;14.30;99.90;;;;;;5037041;28;20046;-67
2023/03/13 04:43:18;;;;;;;23.38;6.60;;;14.10;99.90;;;;;;5029381;28;20570;-66
2023/03/13 04:45:45;;;;;;;30.75;7.03;;;14.00;99.90;;;;;;5028727;28;20030;-67
2023/03/13 04:48:11;;;;;;;22.23;6.40;;;12.60;99.90;;;;;;5029451;28;20053;-66
2023/03/13 04:50:37;;;;;;;22.90;5.88;;;14.00;99.90;;;;;;5030893;28;20041;-67
2023/03/13 04:53:02;;;;;;;21.83;6.55;;;11.30;99.90;;;;;;5029697;28;20045;-67
2023/03/13 04:55:28;;;;;;;29.83;7.50;;;11.10;99.90;;;;;;5054006;28;20053;-67
2023/03/13 04:57:53;;;;;;;31.42;7.03;;;11.40;99.90;;;;;;5029002;28;20088;-66
2023/03/13 05:00:19;;;;;;;21.15;6.13;;;11.30;99.90;;;;;;5031015;28;20046;-66
2023/03/13 05:02:45;;;;;;;17.08;6.10;;;13.80;99.90;;;;;;5029265;28;20045;-67
2023/03/13 05:05:10;;;;;;;26.73;6.07;;;11.70;99.90;;;;;;5029429;28;20034;-66
2023/03/13 05:07:36;;;;;;;14.48;5.68;;;14.00;99.90;;;;;;5030168;28;20045;-66
2023/03/13 05:10:01;;;;;;;22.65;6.50;;;11.30;99.90;;;;;;5037539;28;20029;-67
2023/03/13 05:12:27;;;;;;;22.80;6.22;;;11.20;99.90;;;;;;5049213;28;20037;-68
2023/03/13 05:14:52;;;;;;;17.95;5.75;;;14.50;99.90;;;;;;5049980;28;20056;-67
2023/03/13 05:17:18;;;;;;;19.65;6.80;;;12.30;99.90;;;;;;5050556;28;20099;-67
2023/03/13 05:19:44;;;;;;;26.15;6.30;;;11.40;99.90;;;;;;5035406;28;20414;-67
2023/03/13 05:22:09;;;;;;;21.92;6.25;;;14.30;99.90;;;;;;5029560;28;20057;-67
2023/03/13 05:24:35;;;;;;;24.42;6.43;;;11.10;99.90;;;;;;5029938;28;20050;-67
2023/03/13 05:27:01;;;;;;;20.17;6.65;;;14.10;99.90;;;;;;5033098;28;20037;-68
2023/03/13 05:29:27;;;;;;;29.00;6.82;;;11.20;99.90;;;;;;5034115;28;20034;-67
2023/03/13 05:31:52;;;;;;;27.17;7.07;;;12.70;99.90;;;;;;5042867;28;20037;-67
2023/03/13 05:34:18;;;;;;;29.90;7.32;;;12.20;99.90;;;;;;5048086;28;20099;-67
2023/03/13 05:36:43;;;;;;;28.25;7.25;;;13.70;99.90;;;;;;5034423;28;20041;-67
2023/03/13 05:39:09;;;;;;;27.95;7.75;;;11.90;99.90;;;;;;5038597;28;20056;-67
2023/03/13 05:41:34;;;;;;;25.95;7.20;;;11.90;99.90;;;;;;5052583;28;20487;-67
2023/03/13 05:44:00;;;;;;;27.13;7.22;;;12.50;99.90;;;;;;5053775;28;20033;-67
2023/03/13 05:46:26;;;;;;;23.27;7.13;;;15.10;99.90;;;;;;5048645;28;20115;-67
2023/03/13 05:48:51;;;;;;;30.40;7.13;;;15.30;99.90;;;;;;5033782;28;20033;-67
2023/03/13 05:51:17;;;;;;;27.08;7.82;;;11.90;99.90;;;;;;5032992;28;20033;-67
2023/03/13 05:53:43;;;;;;;25.20;7.55;;;15.30;99.90;;;;;;5040348;28;20048;-67
2023/03/13 05:56:09;;;;;;;34.72;7.80;;;12.80;99.90;;;;;;5053745;28;20041;-67
2023/03/13 05:58:35;;;;;;;32.08;7.25;;;15.50;99.90;;;;;;5052460;28;20171;-67
2023/03/13 06:01:06;;;;;;;42.67;8.63;;;14.70;99.90;;;;;;5053441;28;20044;-67
2023/03/13 06:03:32;;;;;;;24.00;6.60;;;12.00;99.90;;;;;;5043793;28;20044;-67
2023/03/13 06:05:58;;;;;;;34.92;6.82;;;15.00;99.90;;;;;;5051401;28;20028;-66
2023/03/13 06:08:23;;;;;;;34.67;7.68;;;13.70;99.90;;;;;;5051440;28;20132;-66
2023/03/13 06:10:49;;;;;;;27.05;6.50;;;14.80;99.90;;;;;;5037455;28;20133;-66
2023/03/13 06:13:14;;;;;;;25.73;6.65;;;12.40;99.90;;;;;;5033116;28;20041;-66
2023/03/13 06:15:40;;;;;;;32.80;7.10;;;14.70;99.90;;;;;;5048002;28;20033;-66
2023/03/13 06:18:05;;;;;;;29.13;7.57;;;12.40;99.90;;;;;;5032411;28;20048;-66
2023/03/13 06:20:31;;;;;;;22.27;6.05;;;13.90;99.90;;;;;;5032917;28;20043;-67
2023/03/13 06:22:57;;;;;;;28.20;6.90;;;12.70;99.90;;;;;;5047011;28;20051;-66
2023/03/13 06:25:24;;;;;;;24.98;5.78;;;15.70;99.90;;;;;;5048993;28;20094;-67
2023/03/13 06:27:50;;;;;;;30.50;7.25;;;15.10;99.90;;;;;;5043748;28;20434;-66
2023/03/13 06:30:16;;;;;;;27.83;6.65;;;12.20;99.90;;;;;;5033154;28;20083;-66
2023/03/13 06:32:41;;;;;;;19.30;5.57;;;12.10;99.90;;;;;;5032986;28;20095;-67
2023/03/13 06:35:07;;;;;;;24.33;6.32;;;12.00;99.90;;;;;;5043465;28;20457;-67
2023/03/13 06:37:33;;;;;;;25.60;6.70;;;15.30;99.90;;;;;;5050973;28;20483;-66
2023/03/13 06:39:59;;;;;;;26.23;6.43;;;14.70;99.90;;;;;;5033532;28;20067;-67
2023/03/13 06:42:24;;;;;;;37.03;7.10;;;12.30;99.90;;;;;;5048099;28;20502;-66
2023/03/13 06:44:50;;;;;;;24.38;5.63;;;13.80;99.90;;;;;;5052859;28;20047;-66
2023/03/13 06:47:15;;;;;;;26.90;6.60;;;14.80;99.90;;;;;;5050179;28;20087;-66
2023/03/13 06:49:41;;;;;;;28.35;6.68;;;13.10;99.90;;;;;;5047637;28;20090;-67
2023/03/13 06:52:07;;;;;;;28.83;6.72;;;12.40;99.90;;;;;;5036943;28;20510;-67
2023/03/13 06:54:32;;;;;;;32.20;7.35;;;14.60;99.90;;;;;;5052074;28;20049;-67
2023/03/13 06:56:58;;;;;;;19.48;6.82;;;11.50;99.90;;;;;;5047285;28;20049;-67
2023/03/13 06:59:24;;;;;;;25.35;6.28;;;11.80;99.90;;;;;;5037789;28;20098;-66
2023/03/13 07:01:49;;;;;;;24.73;6.88;;;14.50;99.90;;;;;;5032023;28;20048;-67
2023/03/13 07:04:15;;;;;;;31.52;6.75;;;11.80;99.90;;;;;;5031262;28;20041;-66
2023/03/13 07:06:40;;;;;;;26.02;5.95;;;15.10;99.90;;;;;;5037035;28;20095;-66
2023/03/13 07:09:06;;;;;;;27.10;6.68;;;15.30;99.90;;;;;;5032031;28;20037;-67
2023/03/13 07:11:32;;;;;;;32.25;7.30;;;14.60;99.90;;;;;;5039170;28;20032;-67
2023/03/13 07:14:00;;;;;;;26.10;6.32;;;14.70;99.90;;;;;;5033092;28;20119;-66
2023/03/13 07:16:26;;;;;;;28.67;6.18;;;14.50;99.90;;;;;;5047702;28;20037;-66
2023/03/13 07:18:51;;;;;;;31.60;6.35;;;15.30;99.90;;;;;;5032053;28;20438;-66
2023/03/13 07:21:17;;;;;;;28.05;7.00;;;11.80;99.90;;;;;;5039748;28;20141;-66
2023/03/13 07:23:43;;;;;;;27.02;6.55;;;15.20;99.90;;;;;;5031196;28;20044;-66
2023/03/13 07:26:15;;;;;;;27.73;7.13;;;11.50;99.90;;;;;;5043808;28;20052;-66
2023/03/13 07:28:41;;;;;;;28.42;6.55;;;12.20;99.90;;;;;;5044207;28;20063;-67
2023/03/13 07:31:28;;;;;;;34.88;7.28;;;13.90;99.90;;;;;;5038275;28;20040;-66
2023/03/13 07:33:55;;;;;;;33.53;7.05;;;13.20;99.90;;;;;;5037045;28;20176;-66
2023/03/13 07:36:21;;;;;;;21.92;5.90;;;14.90;99.90;;;;;;5038518;28;20414;-67
2023/03/13 07:38:48;;;;;;;29.92;7.20;;;15.40;99.90;;;;;;5046800;28;20036;-66
2023/03/13 07:41:14;;;;;;;28.88;6.57;;;15.30;99.90;;;;;;5039907;28;20414;-66
2023/03/13 07:43:39;;;;;;;28.33;6.65;;;13.20;99.90;;;;;;5042962;28;20045;-67
2023/03/13 07:46:07;;;;;;;30.10;7.03;;;13.40;99.90;;;;;;5034759;28;20156;-66
2023/03/13 07:48:35;;;;;;;20.42;5.22;;;15.00;99.90;;;;;;5040668;28;20040;-66
2023/03/13 07:51:01;;;;;;;17.05;4.93;;;12.30;99.90;;;;;;5035233;28;20494;-66
2023/03/13 07:53:27;;;;;;;30.83;5.85;;;14.30;99.90;;;;;;5034153;28;20525;-66
2023/03/13 07:56:04;;;;;;;20.95;5.97;;;16.00;99.90;;;;;;5039941;28;20060;-65
2023/03/13 07:58:32;;;;;;;27.48;5.55;;;15.90;99.90;;;;;;5041194;28;20056;-66
2023/03/13 08:00:58;;;;;;;17.58;4.55;;;15.80;99.90;;;;;;5036223;28;20052;-66
2023/03/13 08:03:24;;;;;;;19.67;5.53;;;12.30;99.90;;;;;;5032410;28;20411;-66
2023/03/13 08:06:01;;;;;;;22.77;5.13;;;12.50;99.90;;;;;;5042122;28;20064;-67
2023/03/13 08:08:27;;;;;;;23.35;4.90;;;15.60;99.90;;;;;;5038699;28;20052;-67
2023/03/13 08:10:53;;;;;;;29.48;5.10;;;13.50;99.90;;;;;;5040073;28;20403;-66
2023/03/13 08:13:18;;;;;;;19.00;4.65;;;17.60;99.90;;;;;;5030981;28;20051;-67
2023/03/13 08:15:44;;;;;;;25.48;5.57;;;14.80;99.90;;;;;;5044277;28;20045;-67
2023/03/13 08:18:09;;;;;;;20.75;5.30;;;14.10;99.90;;;;;;5034445;28;20033;-67
2023/03/13 08:20:35;;;;;;;24.00;5.85;;;14.70;99.90;;;;;;5050055;28;20507;-67
2023/03/13 08:23:00;;;;;;;19.90;5.28;;;16.30;99.90;;;;;;5046566;28;20068;-67
2023/03/13 08:25:26;;;;;;;17.98;4.07;;;15.30;99.90;;;;;;5046118;28;20036;-68
2023/03/13 08:27:52;;;;;;;16.38;4.53;;;16.60;99.90;;;;;;5038455;28;20033;-68
2023/03/13 08:30:17;;;;;;;18.67;4.50;;;15.10;99.90;;;;;;5040319;28;20034;-66
2023/03/13 08:32:43;;;;;;;21.02;5.28;;;13.60;99.90;;;;;;5031601;28;20072;-67
2023/03/13 08:35:09;;;;;;;21.10;4.93;;;14.10;99.90;;;;;;5030958;28;20453;-66
2023/03/13 08:37:34;;;;;;;21.23;4.63;;;13.30;99.90;;;;;;5039655;28;20413;-66
2023/03/13 08:40:00;;;;;;;20.83;4.88;;;15.70;99.90;;;;;;5045833;28;20073;-66
2023/03/13 08:42:25;;;;;;;15.25;4.22;;;16.00;99.90;;;;;;5050730;28;20036;-65
2023/03/13 08:44:51;;;;;;;13.63;3.83;;;16.20;99.90;;;;;;5032714;28;20029;-65
2023/03/13 08:47:19;;;;;;;20.83;4.00;;;16.10;99.90;;;;;;5031433;28;20033;-65
2023/03/13 08:49:45;;;;;;;17.95;4.40;;;16.00;99.90;;;;;;5048746;28;20068;-65
2023/03/13 08:52:11;;;;;;;17.90;4.50;;;16.10;99.90;;;;;;5036490;28;20033;-66
2023/03/13 08:54:36;;;;;;;17.70;5.20;;;15.20;99.90;;;;;;5048853;28;20048;-65
2023/03/13 08:57:02;;;;;;;15.70;4.88;;;15.50;99.90;;;;;;5050296;28;20033;-65
2023/03/13 08:59:27;;;;;;;18.23;4.60;;;13.80;99.90;;;;;;5052732;28;20489;-65
2023/03/13 09:01:53;;;;;;;17.23;4.78;;;14.40;99.90;;;;;;5053546;28;20041;-65
2023/03/13 09:04:19;;;;;;;19.63;4.10;;;12.50;99.90;;;;;;5053400;28;20045;-65
2023/03/13 09:06:44;;;;;;;24.67;5.13;;;12.70;99.90;;;;;;5035584;28;20049;-64
2023/03/13 09:09:11;;;;;;;33.85;6.28;;;14.20;99.90;;;;;;5050654;28;20474;-64
2023/03/13 09:11:41;;;;;;;26.67;6.53;;;12.40;99.90;;;;;;5045391;28;20060;-67
2023/03/13 09:14:07;;;;;;;19.40;5.20;;;15.20;99.90;;;;;;5041345;28;20588;-66
2023/03/13 09:16:33;;;;;;;20.02;5.35;;;13.10;99.90;;;;;;5049824;28;20049;-65
2023/03/13 09:19:00;;;;;;;20.67;5.25;;;14.50;99.90;;;;;;5049611;28;20069;-66
2023/03/13 09:21:31;;;;;;;22.65;5.15;;;13.00;99.90;;;;;;5039302;28;20056;-66
2023/03/13 09:23:57;;;;;;;35.10;6.60;;;15.00;99.90;;;;;;5041449;28;20037;-66
2023/03/13 09:26:24;;;;;;;25.10;5.50;;;13.60;99.90;;;;;;5053654;28;20033;-65
2023/03/13 09:28:53;;;;;;;20.45;5.53;;;15.50;99.90;;;;;;5052191;28;20376;-65
2023/03/13 09:31:21;;;;;;;30.92;5.63;;;12.20;99.90;;;;;;5051811;28;20086;-66
2023/03/13 09:33:48;;;;;;;27.70;5.97;;;15.60;99.90;;;;;;5041255;28;20053;-65
2023/03/13 09:36:13;;;;;;;22.42;5.68;;;15.80;99.90;;;;;;5043502;28;20115;-66
2023/03/13 09:38:40;;;;;;;24.08;6.22;;;13.20;99.90;;;;;;5068724;28;20112;-66
2023/03/13 09:41:26;;;;;;;18.48;5.13;;;14.10;99.90;;;;;;5049984;28;20044;-66
2023/03/13 09:44:10;;;;;;;23.15;5.28;;;15.30;99.90;;;;;;5043139;28;20098;-67
2023/03/13 09:46:42;;;;;;;23.13;5.60;;;14.00;99.90;;;;;;5049621;28;20041;-66
2023/03/13 09:49:28;;;;;;;20.40;5.70;;;14.10;99.90;;;;;;5044534;28;20040;-66
2023/03/13 09:52:03;;;;;;;15.82;4.72;;;15.70;99.90;;;;;;5034876;28;20080;-67
2023/03/13 09:54:40;;;;;;;21.65;5.20;;;15.80;99.90;;;;;;5051282;28;20056;-67
2023/03/13 09:57:27;;;;;;;25.33;4.80;;;14.40;21.50;;;;;;5039601;28;20033;-67
2023/03/13 10:00:22;;;;;;;25.35;5.18;;;15.70;29.20;;;;;;5044235;28;20501;-66
2023/03/13 10:03:06;;;;;;;20.42;4.88;;;15.80;99.90;;;;;;5050935;28;20391;-66
2023/03/13 10:05:33;;;;;;;26.52;6.07;;;15.70;1.00;;;;;;5053448;28;20046;-66
2023/03/13 10:08:20;;;;;;;29.00;6.45;;;14.70;26.10;;;;;;5052357;28;20037;-66
2023/03/13 10:10:48;;;;;;;22.00;4.97;;;14.80;99.90;;;;;;5051225;28;20044;-67
2023/03/13 10:13:38;;;;;;;25.13;6.15;;;14.60;58.60;;;;;;5053386;28;20473;-67
2023/03/13 10:16:08;;;;;;;30.13;6.38;;;14.80;99.90;;;;;;5032706;28;20041;-67
2023/03/13 10:18:35;;;;;;;31.55;5.78;;;14.80;99.90;;;;;;5048939;28;20055;-66
2023/03/13 10:21:14;;;;;;;36.80;6.75;;;14.90;1.00;;;;;;5052227;28;20111;-67
2023/03/13 10:23:48;;;;;;;20.98;5.90;;;15.50;99.90;;;;;;5052795;28;20136;-66
2023/03/13 10:26:24;;;;;;;27.17;6.57;;;15.90;1.00;;;;;;5053146;28;20040;-66
2023/03/13 10:28:50;;;;;;;23.45;5.93;;;15.70;99.90;;;;;;5034008;28;20414;-67
2023/03/13 10:31:35;;;;;;;35.55;7.07;;;15.30;99.90;;;;;;5045597;28;20048;-66
2023/03/13 10:34:06;;;;;;;36.22;7.07;;;15.30;1.00;;;;;;5033604;28;20395;-67
2023/03/13 10:36:40;;;;;;;22.40;6.75;;;15.10;1.00;;;;;;5040255;28;20437;-65
2023/03/13 10:39:13;;;;;;;29.73;6.50;;;15.30;99.90;;;;;;5037038;28;20492;-65
2023/03/13 10:41:38;;;;;;;33.38;7.50;;;15.50;99.90;;;;;;5032798;28;20072;-65
2023/03/13 10:44:14;;;;;;;29.02;6.85;;;15.90;99.90;;;;;;5032247;28;20041;-65
2023/03/13 10:46:43;;;;;;;32.65;6.97;;;15.60;99.90;;;;;;5039017;28;20033;-65
2023/03/13 10:49:20;;;;;;;32.10;6.45;;;15.50;99.90;;;;;;5051944;28;20052;-65
2023/03/13 10:52:01;;;;;;;27.30;7.57;;;15.40;99.50;;;;;;5041353;28;20041;-65
2023/03/13 10:54:29;;;;;;;28.85;7.55;;;15.40;99.90;;;;;;5032446;28;20143;-65
2023/03/13 10:57:18;;;;;;;25.42;6.78;;;16.10;85.10;;;;;;5042666;28;20048;-65
2023/03/13 10:59:50;;;;;;;25.95;7.07;;;15.90;64.40;;;;;;5050743;28;20052;-65
2023/03/13 11:02:34;;;;;;;24.38;7.05;;;16.10;24.00;;;;;;5049220;28;20106;-64
2023/03/13 11:05:00;;;;;;;27.88;7.82;;;15.60;1.00;;;;;;5032591;28;20044;-65
2023/03/13 11:07:34;;;;;;;23.92;6.55;;;16.50;1.00;;;;;;5041384;28;20090;-65
2023/03/13 11:10:12;;;;;;;27.75;7.65;;;16.10;1.00;;;;;;5051389;28;20037;-65
2023/03/13 11:12:48;;;;;;;28.98;5.95;;;16.00;1.00;;;;;;5048866;28;20379;-65
2023/03/13 11:15:39;;;;;;;32.00;8.20;;;16.10;1.00;;;;;;5042950;28;20045;-64
2023/03/13 11:18:14;;;;;;;22.40;5.57;;;15.30;1.00;;;;;;5057703;28;20045;-65
2023/03/13 11:20:43;;;;;;;19.80;5.23;;;15.80;25.00;;;;;;5051610;28;20048;-64
2023/03/13 11:23:18;;;;;;;19.45;5.88;;;15.90;37.70;;;;;;5039836;28;20061;-64
2023/03/13 11:26:13;;;;;;;34.63;7.90;;;15.60;13.40;;;;;;5034388;28;20034;-65
2023/03/13 11:28:55;;;;;;;26.40;7.10;;;15.50;1.00;;;;;;5049372;28;20494;-64
2023/03/13 11:31:37;;;;;;;22.17;5.72;;;15.10;1.00;;;;;;5047666;28;20040;-64
2023/03/13 11:34:29;;;;;;;24.13;7.20;;;15.70;1.00;;;;;;5051627;28;20053;-64
2023/03/13 11:37:01;;;;;;;33.22;7.88;;;14.70;1.00;;;;;;5047973;28;20098;-64
2023/03/13 11:39:46;;;;;;;32.03;7.88;;;15.20;1.00;;;;;;5051645;28;20040;-64
2023/03/13 11:42:11;;;;;;;36.47;7.30;;;15.00;1.00;;;;;;5051715;28;20036;-64
2023/03/13 11:44:43;;;;;;;29.73;8.85;;;14.40;1.00;;;;;;5048780;28;20045;-64
2023/03/13 11:47:30;;;;;;;27.15;6.90;;;14.80;1.00;;;;;;5051823;28;20585;-64
2023/03/13 11:50:22;;;;;;;30.98;8.02;;;14.30;1.00;;;;;;5051447;28;20418;-64
2023/03/13 11:52:56;;;;;;;28.58;6.72;;;14.10;1.00;;;;;;5050161;28;20111;-64
2023/03/13 11:55:46;;;;;;;37.60;7.85;;;14.20;1.00;;;;;;5050449;28;20036;-64
2023/03/13 11:58:35;;;;;;;31.30;6.43;;;14.50;1.00;;;;;;5048142;28;20037;-64
2023/03/13 12:01:11;;;;;;;29.88;7.30;;;14.70;1.00;;;;;;5042214;28;20041;-64
2023/03/13 12:03:47;;;;;;;24.27;7.43;;;14.20;1.00;;;;;;5045266;28;20506;-64
2023/03/13 12:06:30;;;;;;;28.08;7.43;;;14.70;1.00;;;;;;5040286;28;20403;-65
2023/03/13 12:09:06;;;;;;;29.48;7.97;;;14.70;1.00;;;;;;5051157;28;20040;-65
2023/03/13 12:11:42;;;;;;;31.20;7.63;;;14.70;1.00;;;;;;5050820;28;20045;-65
2023/03/13 12:14:34;;;;;;;32.85;8.35;;;14.80;1.00;;;;;;5049732;28;20068;-65
2023/03/13 12:17:04;;;;;;;21.60;6.35;;;14.90;1.00;;;;;;5050956;28;20044;-65
2023/03/13 12:19:44;;;;;;;23.65;7.18;;;15.20;1.00;;;;;;5050538;28;20448;-65
2023/03/13 12:22:22;;;;;;;26.92;7.65;;;15.30;99.90;;;;;;5049514;28;20060;-65
2023/03/13 12:25:05;;;;;;;25.70;6.05;;;15.30;99.90;;;;;;5047925;28;20514;-65
2023/03/13 12:27:36;;;;;;;23.17;5.85;;;15.70;99.90;;;;;;5031025;28;20033;-65
2023/03/13 12:30:06;;;;;;;32.13;8.10;;;15.20;99.90;;;;;;5036492;28;20079;-65
2023/03/13 12:32:56;;;;;;;30.60;7.20;;;15.10;99.90;;;;;;5049625;28;20037;-64
2023/03/13 12:35:35;;;;;;;25.33;7.00;;;14.70;99.90;;;;;;5041935;28;20080;-64
2023/03/13 12:38:21;;;;;;;32.30;7.10;;;15.10;99.90;;;;;;5043714;28;20037;-65
2023/03/13 12:40:59;;;;;;;;;;;15.00;99.90;;;;;;5051039;28;20406;-65
2023/03/13 12:43:31;;;;;;;33.78;7.00;;;14.60;99.90;;;;;;5050279;28;19921;-65
2023/03/13 12:45:57;;;;;;;29.20;6.82;;;14.80;99.90;;;;;;5046311;28;20049;-65
2023/03/13 12:49:17;;;;;;;30.65;6.75;;;14.50;99.90;;;;;;5042573;28;20088;-65
2023/03/13 12:51:53;;;;;;;27.48;6.35;;;14.60;99.90;;;;;;4990820;28;20056;-65